createdAt,value
2022-12-23T00:02:36.069Z,18.6
2022-12-23T00:07:35.321Z,21.2
2022-12-23T00:12:35.300Z,17.0
2022-12-23T00:17:35.305Z,15.1
2022-12-23T00:22:35.307Z,17.1
2022-12-23T00:27:37.635Z,19.0
2022-12-23T00:32:35.309Z,18.9
2022-12-23T00:37:35.307Z,16.5
2022-12-23T00:42:35.416Z,15.8
2022-12-23T00:47:35.324Z,16.4
2022-12-23T00:52:35.315Z,21.0
2022-12-23T00:57:35.318Z,18.4
2022-12-23T01:02:35.414Z,16.7
2022-12-23T01:07:35.322Z,18.0
2022-12-23T01:12:35.437Z,16.5
2022-12-23T01:17:35.331Z,18.4
2022-12-23T01:22:35.322Z,20.3
2022-12-23T01:27:35.470Z,15.6
2022-12-23T01:32:35.357Z,16.0
2022-12-23T01:37:35.338Z,17.3
2022-12-23T01:42:35.331Z,17.2
2022-12-23T01:47:35.337Z,17.4
2022-12-23T01:52:35.602Z,16.5
2022-12-23T01:57:35.336Z,16.6
2022-12-23T02:02:35.454Z,17.4
2022-12-23T02:07:35.455Z,16.0
2022-12-23T02:12:35.348Z,16.8
2022-12-23T02:17:35.358Z,19.1
2022-12-23T02:22:35.487Z,19.5
2022-12-23T02:27:35.478Z,19.1
2022-12-23T02:32:35.355Z,21.8
2022-12-23T02:37:35.381Z,20.6
2022-12-23T02:42:35.349Z,16.1
2022-12-23T02:47:35.347Z,13.1
2022-12-23T02:52:35.354Z,19.3
2022-12-23T02:57:35.349Z,15.6
2022-12-23T03:02:35.733Z,17.1
2022-12-23T03:07:35.468Z,20.0
2022-12-23T03:12:35.357Z,14.3
2022-12-23T03:17:35.478Z,15.9
2022-12-23T03:22:35.484Z,14.9
2022-12-23T03:27:35.382Z,13.8
2022-12-23T03:32:35.377Z,15.7
2022-12-23T03:37:35.374Z,16.0
2022-12-23T03:42:35.389Z,15.5
2022-12-23T03:47:35.488Z,13.3
2022-12-23T03:52:35.380Z,13.5
2022-12-23T03:57:35.386Z,13.8
2022-12-23T04:02:35.747Z,10.1
2022-12-23T04:07:35.372Z,9.9
2022-12-23T04:12:35.387Z,10.7
2022-12-23T04:17:35.379Z,12.0
2022-12-23T04:22:35.378Z,11.4
2022-12-23T04:27:35.387Z,13.1
2022-12-23T04:32:35.391Z,12.2
2022-12-23T04:37:35.540Z,13.1
2022-12-23T04:42:35.512Z,13.0
2022-12-23T04:47:35.532Z,13.5
2022-12-23T04:52:35.533Z,12.4
2022-12-23T04:57:35.385Z,14.7
2022-12-23T05:02:35.535Z,14.3
2022-12-23T05:07:35.396Z,12.0
2022-12-23T05:12:35.519Z,11.9
2022-12-23T05:17:35.407Z,11.0
2022-12-23T05:22:35.532Z,12.6
2022-12-23T05:27:35.530Z,11.6
2022-12-23T05:32:35.537Z,11.4
2022-12-23T05:37:35.539Z,12.6
2022-12-23T05:42:35.515Z,11.8
2022-12-23T05:47:35.411Z,14.8
2022-12-23T05:52:35.406Z,14.9
2022-12-23T05:57:35.415Z,13.1
2022-12-23T06:02:35.755Z,16.7
2022-12-23T06:07:35.430Z,13.8
2022-12-23T06:12:35.542Z,14.9
2022-12-23T06:17:35.414Z,11.8
2022-12-23T06:22:35.573Z,12.5
2022-12-23T06:27:35.424Z,17.3
2022-12-23T06:32:38.528Z,20.3
2022-12-23T06:37:35.582Z,19.9
2022-12-23T06:42:35.545Z,23.5
2022-12-23T06:47:35.461Z,24.8
2022-12-23T06:52:35.561Z,30.7
2022-12-23T06:57:35.557Z,30.7
2022-12-23T07:02:35.678Z,22.8
2022-12-23T07:07:35.584Z,25.3
2022-12-23T07:12:35.578Z,26.0
2022-12-23T07:17:35.545Z,22.7
2022-12-23T07:22:35.471Z,24.7
2022-12-23T07:27:35.443Z,23.5
2022-12-23T07:32:35.442Z,25.1
2022-12-23T07:37:35.571Z,20.2
2022-12-23T07:42:46.052Z,24.1
2022-12-23T07:47:35.560Z,19.4
2022-12-23T07:52:35.589Z,17.1
2022-12-23T07:57:35.550Z,17.1
2022-12-23T08:02:35.771Z,16.3
2022-12-23T08:07:35.551Z,21.5
2022-12-23T08:12:35.453Z,23.2
2022-12-23T08:17:35.474Z,24.7
2022-12-23T08:22:35.584Z,22.8
2022-12-23T08:27:35.595Z,26.3
2022-12-23T08:32:35.590Z,29.1
2022-12-23T08:37:35.607Z,30.7
2022-12-23T08:42:35.808Z,32.3
2022-12-23T08:47:35.496Z,33.6
2022-12-23T08:52:35.626Z,28.9
2022-12-23T08:57:35.578Z,33.6
2022-12-23T09:02:35.749Z,32.3
2022-12-23T09:07:35.576Z,36.5
2022-12-23T09:12:35.581Z,33.5
2022-12-23T09:17:35.582Z,35.9
2022-12-23T09:22:35.689Z,37.8
2022-12-23T09:27:35.584Z,38.0
2022-12-23T09:32:35.594Z,34.7
2022-12-23T09:37:35.489Z,30.5
2022-12-23T09:42:35.492Z,36.8
2022-12-23T09:47:35.509Z,30.3
2022-12-23T09:52:35.595Z,30.1
2022-12-23T09:57:35.574Z,24.7
2022-12-23T10:02:35.718Z,26.7
2022-12-23T10:07:35.595Z,26.5
2022-12-23T10:12:39.836Z,30.3
2022-12-23T10:17:35.603Z,23.9
2022-12-23T10:22:35.556Z,28.1
2022-12-23T10:27:35.611Z,24.3
2022-12-23T10:32:35.679Z,25.8
2022-12-23T10:37:35.606Z,24.5
2022-12-23T10:42:35.663Z,21.4
2022-12-23T10:47:35.670Z,21.3
2022-12-23T10:52:35.639Z,20.4
2022-12-23T10:57:35.609Z,20.8
2022-12-23T11:02:35.710Z,23.3
2022-12-23T11:07:45.210Z,20.1
2022-12-23T11:12:40.463Z,22.4
2022-12-23T11:17:35.517Z,22.2
2022-12-23T11:22:35.643Z,24.9
2022-12-23T11:27:35.631Z,16.2
2022-12-23T11:32:35.523Z,19.4
2022-12-23T11:37:35.633Z,16.7
2022-12-23T11:42:35.637Z,16.9
2022-12-23T11:47:35.658Z,16.8
2022-12-23T11:52:35.639Z,15.7
2022-12-23T11:57:35.637Z,13.4
2022-12-23T12:02:35.754Z,14.9
2022-12-23T12:07:35.661Z,15.1
2022-12-23T12:12:35.646Z,12.8
2022-12-23T12:17:35.641Z,14.8
2022-12-23T12:22:35.646Z,11.2
2022-12-23T12:27:35.648Z,12.6
2022-12-23T12:32:35.645Z,12.8
2022-12-23T12:37:35.645Z,15.6
2022-12-23T12:42:35.682Z,10.4
2022-12-23T12:47:53.310Z,12.8
2022-12-23T12:52:35.670Z,16.2
2022-12-23T12:57:35.652Z,12.6
2022-12-23T13:02:35.799Z,12.4
2022-12-23T13:07:35.675Z,10.5
2022-12-23T13:12:35.656Z,13.3
2022-12-23T13:17:35.661Z,12.7
2022-12-23T13:22:35.598Z,12.7
2022-12-23T13:27:35.667Z,10.3
2022-12-23T13:32:35.666Z,9.5
2022-12-23T13:37:35.807Z,10.8
2022-12-23T13:42:35.663Z,13.3
2022-12-23T13:47:35.671Z,10.1
2022-12-23T13:52:35.669Z,11.4
2022-12-23T13:57:35.681Z,9.7
2022-12-23T14:02:35.775Z,11.2
2022-12-23T14:07:35.742Z,7.9
2022-12-23T14:12:35.692Z,8.0
2022-12-23T14:17:35.680Z,7.1
2022-12-23T14:22:35.676Z,11.4
2022-12-23T14:27:35.687Z,8.3
2022-12-23T14:32:35.689Z,6.1
2022-12-23T14:37:35.697Z,6.2
2022-12-23T14:42:35.699Z,8.1
2022-12-23T14:47:35.699Z,7.2
2022-12-23T14:52:39.308Z,6.3
2022-12-23T14:57:35.605Z,5.1
2022-12-23T15:02:35.740Z,6.5
2022-12-23T15:07:35.696Z,6.0
2022-12-23T15:12:35.785Z,12.4
2022-12-23T15:17:35.704Z,7.1
2022-12-23T15:22:35.732Z,4.0
2022-12-23T15:27:35.706Z,7.4
2022-12-23T15:32:35.708Z,7.4
2022-12-23T15:37:35.719Z,5.6
2022-12-23T15:42:35.704Z,7.1
2022-12-23T15:47:35.714Z,6.9
2022-12-23T15:57:35.717Z,7.9
2022-12-23T16:07:35.722Z,6.6
2022-12-23T16:12:35.721Z,9.8
2022-12-23T16:17:35.727Z,7.5
2022-12-23T16:22:35.760Z,8.7
2022-12-23T16:27:35.649Z,10.1
2022-12-23T16:32:35.721Z,11.0
2022-12-23T16:37:35.728Z,9.7
2022-12-23T16:42:35.730Z,9.5
2022-12-23T16:47:35.734Z,10.5
2022-12-23T16:52:35.777Z,10.4
2022-12-23T16:57:35.631Z,12.3
2022-12-23T17:02:35.793Z,10.4
2022-12-23T17:07:38.694Z,8.8
2022-12-23T17:12:35.638Z,13.5
2022-12-23T17:17:35.657Z,10.9
2022-12-23T17:22:35.656Z,11.5
2022-12-23T17:27:35.645Z,15.4
2022-12-23T17:32:35.795Z,13.8
2022-12-23T17:37:35.649Z,12.0
2022-12-23T17:42:35.658Z,13.7
2022-12-23T17:47:35.677Z,16.4
2022-12-23T17:52:35.669Z,16.7
2022-12-23T17:57:35.666Z,13.2
2022-12-23T18:02:35.764Z,18.4
2022-12-23T18:07:35.665Z,18.1
2022-12-23T18:12:35.664Z,20.0
2022-12-23T18:17:35.666Z,21.9
2022-12-23T18:22:35.737Z,27.3
2022-12-23T18:27:35.669Z,26.0
2022-12-23T18:32:35.685Z,21.9
2022-12-23T18:37:35.701Z,20.9
2022-12-23T18:42:35.673Z,23.0
2022-12-23T18:47:35.674Z,24.8
2022-12-23T18:52:35.689Z,25.2
2022-12-23T18:57:35.681Z,24.7
2022-12-23T19:02:35.716Z,26.9
2022-12-23T19:07:35.681Z,25.3
2022-12-23T19:12:35.688Z,23.4
2022-12-23T19:17:35.684Z,26.9
2022-12-23T19:22:35.685Z,28.2
2022-12-23T19:27:35.703Z,22.9
2022-12-23T19:32:35.691Z,24.2
2022-12-23T19:37:35.698Z,27.1
2022-12-23T19:42:35.698Z,17.2
2022-12-23T19:47:35.701Z,36.5
2022-12-23T19:52:35.700Z,23.1
2022-12-23T19:57:35.709Z,23.1
2022-12-23T20:02:35.837Z,23.3
2022-12-23T20:07:35.704Z,21.5
2022-12-23T20:12:35.723Z,25.2
2022-12-23T20:17:35.709Z,19.2
2022-12-23T20:22:35.720Z,28.8
2022-12-23T20:27:35.715Z,26.9
2022-12-23T20:32:35.719Z,29.3
2022-12-23T20:37:35.714Z,18.8
2022-12-23T20:42:35.726Z,16.0
2022-12-23T20:47:35.725Z,18.3
2022-12-23T20:52:35.750Z,20.0
2022-12-23T20:57:35.727Z,14.4
2022-12-23T21:02:35.802Z,14.2
2022-12-23T21:07:35.733Z,28.6
2022-12-23T21:12:35.726Z,18.5
2022-12-23T21:17:35.723Z,17.1
2022-12-23T21:22:35.727Z,18.7
2022-12-23T21:27:35.735Z,20.4
2022-12-23T21:32:35.733Z,17.9
2022-12-23T21:37:35.744Z,15.1
2022-12-23T21:42:35.734Z,14.8
2022-12-23T21:47:35.744Z,16.9
2022-12-23T21:52:35.746Z,12.1
2022-12-23T21:57:35.742Z,10.2
2022-12-23T22:02:35.753Z,12.8
2022-12-23T22:07:35.761Z,11.8
2022-12-23T22:12:35.750Z,14.2
2022-12-23T22:17:35.743Z,12.5
2022-12-23T22:22:35.745Z,14.4
2022-12-23T22:27:35.756Z,14.6
2022-12-23T22:32:40.579Z,18.1
2022-12-23T22:37:35.751Z,15.4
2022-12-23T22:42:35.756Z,16.3
2022-12-23T22:47:35.754Z,16.7
2022-12-23T22:52:35.769Z,20.2
2022-12-23T22:57:35.770Z,21.7
2022-12-23T23:02:35.764Z,19.9
2022-12-23T23:07:35.761Z,20.9
2022-12-23T23:12:35.774Z,19.7
2022-12-23T23:17:35.765Z,16.5
2022-12-23T23:22:35.784Z,16.9
2022-12-23T23:27:35.872Z,16.1
2022-12-23T23:32:35.810Z,18.0
2022-12-23T23:37:35.773Z,21.8
2022-12-23T23:42:35.783Z,15.9
2022-12-23T23:47:35.774Z,24.2
2022-12-23T23:52:35.776Z,23.9
2022-12-23T23:57:35.777Z,17.3
